ASA433 KTPA-KSAN
Flight info
| Callsign | ASA433 |
|---|---|
| Flight time | N/A |
| Altitude | 32000 |
| Route | DORMR3 FROOT BUNNZ Q102 LEV PEKON/N0481F340 VUH KH84C MRTHN ELP/N0472F360 SSO TOTEC GBN HOGGZ LUCKI1 |
| Aircraft | B738/M-SDE2E3FGHIRWXY/LB1 |
Departure
| Time | 2026-05-06 19:21 |
|---|---|
| Airport | Tampa International Airport (KTPA) |
Arrival
| Time | N/A |
|---|---|
| Airport | San Diego International Airport (KSAN) |
| Time | Latitude | Longitude | Altitude | Speed | Heading |
|---|---|---|---|---|---|
| 2026-05-06 18:25 | 27.97773 | -82.53186 | 42 ft | 0 kts | 207° |
| 2026-05-06 19:13 | 27.97785 | -82.53179 | 42 ft | 3 kts | 207° |
| 2026-05-06 19:13 | 27.97803 | -82.53168 | 42 ft | 3 kts | 206° |
| 2026-05-06 19:13 | 27.97820 | -82.53166 | 42 ft | 2 kts | 155° |
| 2026-05-06 19:14 | 27.97832 | -82.53176 | 42 ft | 2 kts | 94° |
| 2026-05-06 19:14 | 27.97833 | -82.53180 | 42 ft | 0 kts | 90° |
| 2026-05-06 19:14 | 27.97833 | -82.53170 | 42 ft | 5 kts | 90° |
| 2026-05-06 19:14 | 27.97834 | -82.53098 | 42 ft | 12 kts | 84° |
| 2026-05-06 19:15 | 27.97853 | -82.53005 | 41 ft | 13 kts | 60° |
| 2026-05-06 19:15 | 27.97948 | -82.52971 | 41 ft | 15 kts | 359° |
| 2026-05-06 19:15 | 27.98048 | -82.52970 | 39 ft | 14 kts | 5° |
| 2026-05-06 19:15 | 27.98143 | -82.52965 | 40 ft | 13 kts | 1° |
| 2026-05-06 19:16 | 27.98232 | -82.52961 | 40 ft | 13 kts | 3° |
| 2026-05-06 19:16 | 27.98323 | -82.52968 | 40 ft | 13 kts | 2° |
| 2026-05-06 19:16 | 27.98430 | -82.52961 | 40 ft | 17 kts | 4° |
| 2026-05-06 19:16 | 27.98563 | -82.52953 | 39 ft | 20 kts | 2° |
| 2026-05-06 19:17 | 27.98635 | -82.53040 | 41 ft | 19 kts | 274° |
| 2026-05-06 19:17 | 27.98639 | -82.53212 | 47 ft | 23 kts | 272° |
| 2026-05-06 19:17 | 27.98645 | -82.53387 | 62 ft | 22 kts | 272° |
| 2026-05-06 19:17 | 27.98652 | -82.53557 | 61 ft | 22 kts | 272° |
| 2026-05-06 19:18 | 27.98657 | -82.53744 | 46 ft | 25 kts | 271° |
| 2026-05-06 19:18 | 27.98674 | -82.53921 | 47 ft | 17 kts | 297° |
| 2026-05-06 19:18 | 27.98786 | -82.53951 | 46 ft | 17 kts | 3° |
| 2026-05-06 19:18 | 27.98900 | -82.53945 | 46 ft | 16 kts | 1° |
| 2026-05-06 19:19 | 27.99010 | -82.53940 | 46 ft | 15 kts | 2° |
| 2026-05-06 19:19 | 27.99115 | -82.53935 | 45 ft | 15 kts | 2° |
| 2026-05-06 19:19 | 27.99216 | -82.53931 | 45 ft | 14 kts | 1° |
| 2026-05-06 19:19 | 27.99312 | -82.53929 | 45 ft | 13 kts | 359° |
| 2026-05-06 19:20 | 27.99351 | -82.54011 | 45 ft | 13 kts | 270° |
| 2026-05-06 19:20 | 27.99351 | -82.54111 | 45 ft | 12 kts | 258° |
| 2026-05-06 19:20 | 27.99248 | -82.54139 | 46 ft | 33 kts | 180° |
| 2026-05-06 19:20 | 27.98811 | -82.54152 | 50 ft | 91 kts | 182° |
| 2026-05-06 19:21 | 27.98004 | -82.54179 | 46 ft | 140 kts | 181° |
| 2026-05-06 19:21 | 27.96897 | -82.54215 | 105 ft | 172 kts | 181° |
| 2026-05-06 19:21 | 27.95687 | -82.54219 | 618 ft | 175 kts | 181° |
| 2026-05-06 19:21 | 27.94474 | -82.54416 | 1149 ft | 178 kts | 197° |
| 2026-05-06 19:22 | 27.93303 | -82.54816 | 1742 ft | 180 kts | 198° |
| 2026-05-06 19:22 | 27.92045 | -82.55283 | 2018 ft | 202 kts | 198° |
| 2026-05-06 19:22 | 27.90643 | -82.55790 | 2196 ft | 220 kts | 197° |
| 2026-05-06 19:22 | 27.89122 | -82.56311 | 2411 ft | 236 kts | 196° |
| 2026-05-06 19:23 | 27.87534 | -82.56844 | 2858 ft | 242 kts | 199° |
| 2026-05-06 19:23 | 27.86158 | -82.58012 | 3059 ft | 261 kts | 237° |
| 2026-05-06 19:23 | 27.85351 | -82.59866 | 3671 ft | 265 kts | 245° |
| 2026-05-06 19:23 | 27.84600 | -82.61789 | 4340 ft | 267 kts | 245° |
| 2026-05-06 19:24 | 27.83851 | -82.63694 | 4971 ft | 271 kts | 245° |
| 2026-05-06 19:24 | 27.83071 | -82.65641 | 5664 ft | 273 kts | 244° |
| 2026-05-06 19:24 | 27.82266 | -82.67616 | 6326 ft | 275 kts | 244° |
| 2026-05-06 19:24 | 27.81451 | -82.69589 | 6926 ft | 279 kts | 244° |
| 2026-05-06 19:25 | 27.80622 | -82.71584 | 7518 ft | 282 kts | 244° |
| 2026-05-06 19:25 | 27.79790 | -82.73573 | 8106 ft | 285 kts | 244° |
| 2026-05-06 19:25 | 27.78927 | -82.75631 | 8709 ft | 288 kts | 244° |
| 2026-05-06 19:25 | 27.78062 | -82.77683 | 9298 ft | 291 kts | 244° |
| 2026-05-06 19:26 | 27.77185 | -82.79758 | 9868 ft | 294 kts | 245° |
| 2026-05-06 19:26 | 27.76299 | -82.81852 | 10445 ft | 296 kts | 245° |
| 2026-05-06 19:26 | 27.75400 | -82.83975 | 10819 ft | 308 kts | 245° |
| 2026-05-06 19:26 | 27.74447 | -82.86223 | 10960 ft | 326 kts | 245° |
| 2026-05-06 19:27 | 27.73443 | -82.88589 | 11099 ft | 343 kts | 245° |
| 2026-05-06 19:27 | 27.72395 | -82.91058 | 11232 ft | 360 kts | 245° |
| 2026-05-06 19:27 | 27.71306 | -82.93623 | 11340 ft | 375 kts | 245° |
| 2026-05-06 19:27 | 27.70144 | -82.96357 | 11455 ft | 389 kts | 245° |
| 2026-05-06 19:28 | 27.68952 | -82.99157 | 11551 ft | 402 kts | 245° |
| 2026-05-06 19:28 | 27.67727 | -83.02033 | 11717 ft | 411 kts | 245° |
| 2026-05-06 19:28 | 27.66670 | -83.04980 | 12079 ft | 412 kts | 254° |
| 2026-05-06 19:28 | 27.66078 | -83.08135 | 12534 ft | 411 kts | 265° |
| 2026-05-06 19:29 | 27.65810 | -83.11341 | 12985 ft | 411 kts | 266° |
| 2026-05-06 19:29 | 27.65554 | -83.14566 | 13415 ft | 413 kts | 266° |
| 2026-05-06 19:29 | 27.65283 | -83.17794 | 13827 ft | 415 kts | 266° |
| 2026-05-06 19:29 | 27.64994 | -83.21038 | 14266 ft | 416 kts | 266° |
| 2026-05-06 19:30 | 27.64693 | -83.24290 | 14669 ft | 418 kts | 265° |
| 2026-05-06 19:30 | 27.64388 | -83.27557 | 15075 ft | 419 kts | 266° |
| 2026-05-06 19:30 | 27.64080 | -83.30838 | 15482 ft | 421 kts | 266° |
| 2026-05-06 19:30 | 27.63772 | -83.34127 | 15893 ft | 422 kts | 266° |
| 2026-05-06 19:31 | 27.63462 | -83.37421 | 16283 ft | 423 kts | 266° |
| 2026-05-06 19:31 | 27.63152 | -83.40727 | 16652 ft | 425 kts | 266° |
| 2026-05-06 19:31 | 27.62523 | -83.47378 | 17375 ft | 428 kts | 266° |
| 2026-05-06 19:32 | 27.62206 | -83.50717 | 17734 ft | 429 kts | 266° |
| 2026-05-06 19:32 | 27.61888 | -83.54067 | 18077 ft | 430 kts | 266° |
| 2026-05-06 19:32 | 27.61569 | -83.57423 | 18395 ft | 432 kts | 266° |
| 2026-05-06 19:32 | 27.61247 | -83.60792 | 18735 ft | 432 kts | 266° |
| 2026-05-06 19:33 | 27.60924 | -83.64165 | 19054 ft | 434 kts | 266° |
| 2026-05-06 19:33 | 27.60601 | -83.67549 | 19387 ft | 434 kts | 266° |
| 2026-05-06 19:33 | 27.60275 | -83.70931 | 19717 ft | 434 kts | 266° |
| 2026-05-06 19:33 | 27.59948 | -83.74323 | 20004 ft | 436 kts | 266° |
| 2026-05-06 19:34 | 27.59619 | -83.77723 | 20296 ft | 436 kts | 266° |
| 2026-05-06 19:34 | 27.59289 | -83.81121 | 20564 ft | 437 kts | 266° |
| 2026-05-06 19:34 | 27.58957 | -83.84539 | 20829 ft | 439 kts | 265° |
| 2026-05-06 19:34 | 27.58623 | -83.87966 | 21103 ft | 439 kts | 266° |
| 2026-05-06 19:35 | 27.58289 | -83.91377 | 21379 ft | 439 kts | 265° |
| 2026-05-06 19:35 | 27.57952 | -83.94802 | 21621 ft | 440 kts | 265° |
| 2026-05-06 19:35 | 27.57614 | -83.98244 | 21843 ft | 441 kts | 265° |
| 2026-05-06 19:35 | 27.57276 | -84.01686 | 22082 ft | 442 kts | 265° |
| 2026-05-06 19:36 | 27.56937 | -84.05131 | 22323 ft | 442 kts | 265° |
| 2026-05-06 19:36 | 27.56601 | -84.08528 | 22542 ft | 443 kts | 265° |
| 2026-05-06 19:36 | 27.56258 | -84.11984 | 22748 ft | 444 kts | 265° |
| 2026-05-06 19:36 | 27.55993 | -84.15445 | 22933 ft | 443 kts | 270° |
| 2026-05-06 19:37 | 27.56122 | -84.18910 | 23102 ft | 443 kts | 278° |
| 2026-05-06 19:37 | 27.56670 | -84.22320 | 23302 ft | 443 kts | 282° |
| 2026-05-06 19:37 | 27.57260 | -84.25728 | 23469 ft | 444 kts | 281° |
| 2026-05-06 19:37 | 27.57653 | -84.28036 | 23587 ft | 444 kts | 281° |
| 2026-05-06 19:38 | 27.58411 | -84.32577 | 23828 ft | 445 kts | 281° |
| 2026-05-06 19:38 | 27.58974 | -84.36010 | 24006 ft | 445 kts | 281° |
| 2026-05-06 19:38 | 27.59532 | -84.39443 | 24181 ft | 446 kts | 281° |
| 2026-05-06 19:38 | 27.60088 | -84.42889 | 24279 ft | 448 kts | 281° |
| 2026-05-06 19:39 | 27.60646 | -84.46351 | 24392 ft | 450 kts | 281° |
| 2026-05-06 19:39 | 27.61015 | -84.48646 | 24487 ft | 450 kts | 281° |
| 2026-05-06 19:39 | 27.61573 | -84.52122 | 24675 ft | 450 kts | 281° |
| 2026-05-06 19:39 | 27.62129 | -84.55589 | 24834 ft | 450 kts | 281° |
| 2026-05-06 19:40 | 27.62686 | -84.59064 | 24956 ft | 451 kts | 281° |
| 2026-05-06 19:40 | 27.63244 | -84.62553 | 25063 ft | 452 kts | 281° |
| 2026-05-06 19:40 | 27.63803 | -84.66049 | 25179 ft | 453 kts | 281° |
| 2026-05-06 19:40 | 27.64362 | -84.69551 | 25308 ft | 454 kts | 281° |
| 2026-05-06 19:41 | 27.64919 | -84.73054 | 25437 ft | 455 kts | 281° |
| 2026-05-06 19:41 | 27.65478 | -84.76572 | 25568 ft | 455 kts | 281° |
| 2026-05-06 19:41 | 27.66036 | -84.80085 | 25715 ft | 455 kts | 281° |
| 2026-05-06 19:41 | 27.66592 | -84.83596 | 25823 ft | 455 kts | 281° |
| 2026-05-06 19:42 | 27.67148 | -84.87114 | 25895 ft | 456 kts | 281° |
| 2026-05-06 19:42 | 27.67706 | -84.90646 | 25970 ft | 457 kts | 281° |
| 2026-05-06 19:42 | 27.68262 | -84.94176 | 26036 ft | 458 kts | 280° |
| 2026-05-06 19:42 | 27.68819 | -84.97713 | 26110 ft | 458 kts | 280° |
| 2026-05-06 19:43 | 27.69375 | -85.01256 | 26184 ft | 458 kts | 280° |
| 2026-05-06 19:43 | 27.69929 | -85.04795 | 26284 ft | 458 kts | 280° |
| 2026-05-06 19:43 | 27.70484 | -85.08334 | 26411 ft | 457 kts | 280° |
| 2026-05-06 19:43 | 27.71035 | -85.11853 | 26585 ft | 455 kts | 280° |
| 2026-05-06 19:44 | 27.71584 | -85.15370 | 26704 ft | 455 kts | 280° |
| 2026-05-06 19:44 | 27.72131 | -85.18891 | 26807 ft | 455 kts | 280° |
| 2026-05-06 19:44 | 27.72678 | -85.22413 | 26934 ft | 454 kts | 280° |
| 2026-05-06 19:44 | 27.73222 | -85.25916 | 27101 ft | 453 kts | 280° |
| 2026-05-06 19:45 | 27.73763 | -85.29408 | 27284 ft | 451 kts | 280° |
| 2026-05-06 19:45 | 27.74328 | -85.32886 | 27417 ft | 451 kts | 281° |
| 2026-05-06 19:45 | 27.74959 | -85.36306 | 27509 ft | 451 kts | 282° |
| 2026-05-06 19:45 | 27.75636 | -85.39768 | 27624 ft | 451 kts | 282° |
| 2026-05-06 19:46 | 27.76320 | -85.43224 | 27768 ft | 451 kts | 282° |
| 2026-05-06 19:46 | 27.76998 | -85.46671 | 27966 ft | 449 kts | 282° |
| 2026-05-06 19:46 | 27.77665 | -85.50105 | 28131 ft | 448 kts | 282° |
| 2026-05-06 19:46 | 27.78325 | -85.53543 | 28265 ft | 448 kts | 282° |
| 2026-05-06 19:47 | 27.78979 | -85.56978 | 28447 ft | 447 kts | 282° |
| 2026-05-06 19:47 | 27.79627 | -85.60398 | 28642 ft | 445 kts | 282° |
| 2026-05-06 19:47 | 27.80273 | -85.63818 | 28825 ft | 444 kts | 281° |
| 2026-05-06 19:47 | 27.80916 | -85.67229 | 28974 ft | 444 kts | 281° |
| 2026-05-06 19:48 | 27.81558 | -85.70641 | 29114 ft | 444 kts | 281° |
| 2026-05-06 19:48 | 27.82198 | -85.74050 | 29284 ft | 443 kts | 281° |
| 2026-05-06 19:48 | 27.82837 | -85.77454 | 29467 ft | 442 kts | 281° |
| 2026-05-06 19:48 | 27.83473 | -85.80844 | 29690 ft | 441 kts | 281° |
| 2026-05-06 19:49 | 27.84106 | -85.84226 | 29889 ft | 439 kts | 281° |
| 2026-05-06 19:49 | 27.84737 | -85.87601 | 30070 ft | 439 kts | 281° |
| 2026-05-06 19:49 | 27.85367 | -85.90975 | 30227 ft | 439 kts | 281° |
| 2026-05-06 19:49 | 27.85995 | -85.94354 | 30402 ft | 439 kts | 281° |
| 2026-05-06 19:50 | 27.86622 | -85.97723 | 30610 ft | 437 kts | 281° |
| 2026-05-06 19:50 | 27.87247 | -86.01075 | 30821 ft | 436 kts | 281° |
| 2026-05-06 19:50 | 27.87870 | -86.04427 | 30975 ft | 436 kts | 281° |
| 2026-05-06 19:50 | 27.88491 | -86.07778 | 31120 ft | 437 kts | 281° |
| 2026-05-06 19:51 | 27.89114 | -86.11143 | 31294 ft | 436 kts | 281° |
| 2026-05-06 19:51 | 27.89732 | -86.14488 | 31518 ft | 434 kts | 281° |
| 2026-05-06 19:51 | 27.90349 | -86.17827 | 31728 ft | 433 kts | 281° |
| 2026-05-06 19:51 | 27.90964 | -86.21167 | 31874 ft | 433 kts | 281° |
| 2026-05-06 19:52 | 27.91578 | -86.24505 | 32014 ft | 434 kts | 281° |
| 2026-05-06 19:52 | 27.92189 | -86.27826 | 32056 ft | 430 kts | 281° |
| 2026-05-06 19:52 | 27.93401 | -86.34436 | 32079 ft | 431 kts | 281° |
| 2026-05-06 19:53 | 27.94619 | -86.41095 | 32078 ft | 433 kts | 281° |
| 2026-05-06 19:53 | 27.95827 | -86.47726 | 32079 ft | 435 kts | 281° |
| 2026-05-06 19:54 | 27.97060 | -86.54504 | 32072 ft | 436 kts | 281° |
| 2026-05-06 19:54 | 27.98270 | -86.61180 | 32066 ft | 437 kts | 281° |
| 2026-05-06 19:55 | 27.99495 | -86.67947 | 32063 ft | 436 kts | 281° |
| 2026-05-06 19:55 | 28.00707 | -86.74664 | 32070 ft | 435 kts | 281° |
| 2026-05-06 19:56 | 28.02350 | -86.81233 | 32071 ft | 433 kts | 287° |
| 2026-05-06 19:56 | 28.04307 | -86.87625 | 32052 ft | 432 kts | 287° |
| 2026-05-06 19:57 | 28.06262 | -86.94034 | 32041 ft | 430 kts | 287° |
| 2026-05-06 19:57 | 28.08178 | -87.00442 | 32044 ft | 429 kts | 287° |
| 2026-05-06 19:58 | 28.10076 | -87.06848 | 32049 ft | 428 kts | 287° |
| 2026-05-06 19:58 | 28.11966 | -87.13251 | 32053 ft | 428 kts | 286° |
| 2026-05-06 19:59 | 28.13852 | -87.19652 | 32044 ft | 429 kts | 286° |
| 2026-05-06 19:59 | 28.15736 | -87.26059 | 32046 ft | 429 kts | 286° |
| 2026-05-06 20:00 | 28.17619 | -87.32470 | 32046 ft | 429 kts | 286° |
| 2026-05-06 20:00 | 28.19502 | -87.38895 | 32051 ft | 429 kts | 286° |
| 2026-05-06 20:01 | 28.21381 | -87.45320 | 32044 ft | 430 kts | 286° |
| 2026-05-06 20:01 | 28.23262 | -87.51764 | 32047 ft | 430 kts | 286° |
| 2026-05-06 20:02 | 28.25139 | -87.58209 | 32048 ft | 431 kts | 286° |
| 2026-05-06 20:02 | 28.27019 | -87.64668 | 32045 ft | 431 kts | 286° |
| 2026-05-06 20:03 | 28.28892 | -87.71127 | 32050 ft | 431 kts | 286° |
| 2026-05-06 20:03 | 28.30766 | -87.77596 | 32044 ft | 432 kts | 286° |
| 2026-05-06 20:04 | 28.32637 | -87.84073 | 32048 ft | 432 kts | 286° |
| 2026-05-06 20:04 | 28.34494 | -87.90511 | 32055 ft | 432 kts | 286° |
| 2026-05-06 20:05 | 28.36359 | -87.96990 | 32054 ft | 432 kts | 285° |
| 2026-05-06 20:05 | 28.38233 | -88.03468 | 32057 ft | 432 kts | 287° |
| 2026-05-06 20:06 | 28.40590 | -88.09777 | 32063 ft | 434 kts | 291° |
| 2026-05-06 20:06 | 28.43102 | -88.16013 | 32055 ft | 434 kts | 291° |
| 2026-05-06 20:07 | 28.45596 | -88.22261 | 32054 ft | 434 kts | 291° |
| 2026-05-06 20:07 | 28.48058 | -88.28515 | 32056 ft | 433 kts | 291° |
| 2026-05-06 20:08 | 28.50507 | -88.34781 | 32047 ft | 434 kts | 291° |
| 2026-05-06 20:08 | 28.52949 | -88.41043 | 32051 ft | 433 kts | 291° |
| 2026-05-06 20:09 | 28.55384 | -88.47293 | 32044 ft | 432 kts | 291° |
| 2026-05-06 20:09 | 28.57813 | -88.53541 | 32051 ft | 431 kts | 291° |
| 2026-05-06 20:10 | 28.60230 | -88.59767 | 32052 ft | 430 kts | 290° |
| 2026-05-06 20:10 | 28.62644 | -88.65993 | 32037 ft | 430 kts | 290° |
| 2026-05-06 20:11 | 28.65049 | -88.72212 | 32038 ft | 429 kts | 290° |
| 2026-05-06 20:11 | 28.67451 | -88.78429 | 32036 ft | 428 kts | 290° |
| 2026-05-06 20:12 | 28.69846 | -88.84640 | 32038 ft | 428 kts | 290° |
| 2026-05-06 20:12 | 28.72239 | -88.90853 | 32038 ft | 428 kts | 290° |
| 2026-05-06 20:13 | 28.74625 | -88.97063 | 32038 ft | 428 kts | 290° |
| 2026-05-06 20:13 | 28.77007 | -89.03270 | 32027 ft | 428 kts | 290° |
| 2026-05-06 20:14 | 28.79388 | -89.09486 | 32028 ft | 427 kts | 290° |
| 2026-05-06 20:14 | 28.81762 | -89.15692 | 32025 ft | 427 kts | 290° |
| 2026-05-06 20:15 | 28.84131 | -89.21894 | 32028 ft | 426 kts | 290° |
| 2026-05-06 20:15 | 28.86493 | -89.28087 | 32020 ft | 426 kts | 290° |
| 2026-05-06 20:16 | 28.88855 | -89.34293 | 32017 ft | 426 kts | 290° |
| 2026-05-06 20:16 | 28.91212 | -89.40500 | 32011 ft | 426 kts | 290° |
| 2026-05-06 20:17 | 28.93566 | -89.46704 | 32007 ft | 426 kts | 290° |
| 2026-05-06 20:17 | 28.95917 | -89.52912 | 32010 ft | 426 kts | 290° |
| 2026-05-06 20:18 | 28.98266 | -89.59125 | 32000 ft | 426 kts | 290° |
| 2026-05-06 20:18 | 29.00610 | -89.65332 | 32000 ft | 426 kts | 290° |
| 2026-05-06 20:19 | 29.02949 | -89.71543 | 32001 ft | 425 kts | 290° |
| 2026-05-06 20:19 | 29.05268 | -89.77706 | 31997 ft | 425 kts | 290° |
| 2026-05-06 20:20 | 29.07613 | -89.83949 | 32001 ft | 424 kts | 290° |
| 2026-05-06 20:20 | 29.09920 | -89.90104 | 32000 ft | 424 kts | 289° |
| 2026-05-06 20:21 | 29.12239 | -89.96300 | 32001 ft | 423 kts | 289° |
| 2026-05-06 20:21 | 29.14551 | -90.02489 | 32001 ft | 423 kts | 289° |
| 2026-05-06 20:22 | 29.16855 | -90.08681 | 31999 ft | 422 kts | 288° |
| 2026-05-06 20:22 | 29.18355 | -90.15095 | 32011 ft | 417 kts | 278° |
| 2026-05-06 20:23 | 29.19421 | -90.21626 | 32002 ft | 418 kts | 278° |
| 2026-05-06 20:23 | 29.20512 | -90.28160 | 31998 ft | 417 kts | 278° |
| 2026-05-06 20:24 | 29.21607 | -90.34683 | 32003 ft | 417 kts | 278° |
| 2026-05-06 20:24 | 29.22702 | -90.41204 | 31998 ft | 417 kts | 278° |
| 2026-05-06 20:25 | 29.23793 | -90.47721 | 32001 ft | 417 kts | 278° |
| 2026-05-06 20:25 | 29.24698 | -90.53144 | 31991 ft | 417 kts | 278° |
| 2026-05-06 20:26 | 29.25784 | -90.59668 | 31994 ft | 417 kts | 278° |
| 2026-05-06 20:26 | 29.26866 | -90.66189 | 31993 ft | 417 kts | 278° |
| 2026-05-06 20:27 | 29.27945 | -90.72714 | 31989 ft | 417 kts | 278° |
| 2026-05-06 20:27 | 29.29022 | -90.79249 | 31982 ft | 417 kts | 278° |
| 2026-05-06 20:28 | 29.30095 | -90.85781 | 31983 ft | 417 kts | 278° |
| 2026-05-06 20:28 | 29.31167 | -90.92320 | 31979 ft | 417 kts | 278° |
| 2026-05-06 20:29 | 29.32236 | -90.98856 | 31981 ft | 417 kts | 278° |
| 2026-05-06 20:29 | 29.33300 | -91.05396 | 31984 ft | 417 kts | 278° |
| 2026-05-06 20:30 | 29.34882 | -91.15156 | 31973 ft | 417 kts | 278° |
| 2026-05-06 20:31 | 29.35933 | -91.21666 | 31971 ft | 417 kts | 278° |
| 2026-05-06 20:31 | 29.36984 | -91.28195 | 31974 ft | 416 kts | 278° |
| 2026-05-06 20:32 | 29.38031 | -91.34724 | 31970 ft | 416 kts | 277° |
| 2026-05-06 20:32 | 29.39075 | -91.41252 | 31960 ft | 416 kts | 277° |
| 2026-05-06 20:33 | 29.40115 | -91.47774 | 31952 ft | 416 kts | 277° |
| 2026-05-06 20:33 | 29.41149 | -91.54287 | 31953 ft | 415 kts | 277° |
| 2026-05-06 20:34 | 29.42182 | -91.60801 | 31955 ft | 414 kts | 277° |
| 2026-05-06 20:34 | 29.43208 | -91.67296 | 31954 ft | 414 kts | 277° |
| 2026-05-06 20:35 | 29.44231 | -91.73798 | 31952 ft | 414 kts | 277° |
| 2026-05-06 20:35 | 29.45248 | -91.80289 | 31954 ft | 414 kts | 277° |
| 2026-05-06 20:36 | 29.46263 | -91.86783 | 31950 ft | 413 kts | 277° |
| 2026-05-06 20:36 | 29.47272 | -91.93262 | 31930 ft | 413 kts | 277° |
| 2026-05-06 20:37 | 29.48282 | -91.99763 | 31930 ft | 413 kts | 277° |
| 2026-05-06 20:37 | 29.49285 | -92.06249 | 31921 ft | 413 kts | 277° |
| 2026-05-06 20:38 | 29.50278 | -92.12689 | 31926 ft | 412 kts | 277° |
| 2026-05-06 20:38 | 29.51274 | -92.19164 | 31930 ft | 412 kts | 277° |
| 2026-05-06 20:39 | 29.52267 | -92.25644 | 31921 ft | 412 kts | 277° |
| 2026-05-06 20:39 | 29.53256 | -92.32122 | 31930 ft | 412 kts | 277° |
| 2026-05-06 20:40 | 29.54243 | -92.38606 | 31921 ft | 412 kts | 277° |
| 2026-05-06 20:40 | 29.55225 | -92.45083 | 31928 ft | 412 kts | 277° |
| 2026-05-06 20:41 | 29.56208 | -92.51589 | 31929 ft | 413 kts | 277° |
| 2026-05-06 20:41 | 29.57187 | -92.58088 | 31930 ft | 413 kts | 276° |
| 2026-05-06 20:42 | 29.58164 | -92.64592 | 31927 ft | 414 kts | 276° |
| 2026-05-06 20:42 | 29.59138 | -92.71102 | 31921 ft | 414 kts | 276° |
| 2026-05-06 20:43 | 29.60111 | -92.77629 | 31919 ft | 414 kts | 276° |
| 2026-05-06 20:43 | 29.61081 | -92.84155 | 31911 ft | 414 kts | 276° |
| 2026-05-06 20:44 | 29.61889 | -92.90698 | 31917 ft | 412 kts | 270° |
| 2026-05-06 20:44 | 29.61515 | -92.97226 | 31915 ft | 410 kts | 258° |
| 2026-05-06 20:45 | 29.60366 | -93.03600 | 31915 ft | 410 kts | 258° |
| 2026-05-06 20:45 | 29.59225 | -93.09994 | 31910 ft | 410 kts | 258° |
| 2026-05-06 20:46 | 29.58088 | -93.16409 | 31916 ft | 410 kts | 258° |
| 2026-05-06 20:46 | 29.56955 | -93.22829 | 31912 ft | 410 kts | 258° |
| 2026-05-06 20:47 | 29.55820 | -93.29243 | 31913 ft | 410 kts | 258° |
| 2026-05-06 20:47 | 29.54682 | -93.35662 | 31924 ft | 410 kts | 258° |
| 2026-05-06 20:48 | 29.53542 | -93.42068 | 31913 ft | 409 kts | 258° |
| 2026-05-06 20:48 | 29.52398 | -93.48476 | 31921 ft | 409 kts | 258° |
| 2026-05-06 20:49 | 29.51253 | -93.54874 | 31910 ft | 409 kts | 258° |
| 2026-05-06 20:49 | 29.50106 | -93.61262 | 31920 ft | 409 kts | 257° |
| 2026-05-06 20:50 | 29.48955 | -93.67650 | 31912 ft | 408 kts | 257° |
| 2026-05-06 20:50 | 29.47803 | -93.74026 | 31908 ft | 408 kts | 257° |
| 2026-05-06 20:51 | 29.46652 | -93.80398 | 31906 ft | 408 kts | 257° |
| 2026-05-06 20:51 | 29.45495 | -93.86766 | 31909 ft | 408 kts | 257° |
| 2026-05-06 20:52 | 29.44341 | -93.93103 | 31907 ft | 407 kts | 257° |
| 2026-05-06 20:52 | 29.43178 | -93.99470 | 31909 ft | 407 kts | 257° |
| 2026-05-06 20:53 | 29.42021 | -94.05787 | 31906 ft | 407 kts | 257° |
| 2026-05-06 20:53 | 29.40859 | -94.12113 | 31899 ft | 408 kts | 257° |
| 2026-05-06 20:54 | 29.39688 | -94.18471 | 31901 ft | 408 kts | 257° |
| 2026-05-06 20:54 | 29.38513 | -94.24837 | 31896 ft | 408 kts | 257° |
| 2026-05-06 20:55 | 29.37337 | -94.31189 | 31900 ft | 408 kts | 257° |
| 2026-05-06 20:55 | 29.36153 | -94.37564 | 31900 ft | 409 kts | 257° |
| 2026-05-06 20:56 | 29.34967 | -94.43927 | 31897 ft | 409 kts | 257° |
| 2026-05-06 20:56 | 29.33784 | -94.50262 | 31899 ft | 409 kts | 257° |
| 2026-05-06 20:57 | 29.32596 | -94.56610 | 31900 ft | 409 kts | 257° |